Home   Weather   Switzerland   St. Gallen   Past weeks
Flag for Switzerland

Past Weather in St. Gallen, St. Gallen, Switzerland — Yesterday and Last 2 Weeks

Currently: 84 °F. Sunny. (Weather station: Saint Gallen-Altenrhein, Switzerland). See more current weather

Past Weather in St. Gallen — Graph

°F

St. Gallen Temperature Yesterday

Maximum temperature yesterday: 82 °F (at 4:20 pm)
Minimum temperature yesterday: 55 °F (at 4:20 am)
Average temperature yesterday: 69 °F

High & Low Weather Summary for the Past Weeks

 TemperatureHumidityPressure
High84 °F (Jun 16, 4:20 pm)100% (Jun 4, 2:50 am)30.30 "Hg (Jun 4, 2:50 am)
Low50 °F (Jun 2, 2:20 am)25% (Jun 1, 4:20 pm)29.92 "Hg (Jun 1, 6:50 pm)
Average66 °F78%30.14 "Hg
* Reported Jun 1 4:20 pm — Jun 16 4:20 pm, St. Gallen. Weather by CustomWeather, © 2021

Note: Actual official high and low records may vary slightly from our data, if they occured in-between our weather recording intervals... More about our weather records

St. Gallen Weather History for the Previous 24 Hours

Scroll right to see more
 ConditionsComfort  
Time TempWeatherWind HumidityBarometerVisibility
4:20 pm
Wed, Jun 16
84 °FSunny.6 mph40%29.95 "Hg10 mi
3:50 pm82 °FSunny.6 mph42%29.95 "Hg10 mi
3:20 pm82 °FSunny.6 mph45%29.95 "Hg10 mi
2:50 pm82 °FWarm.6 mph48%29.98 "HgN/A
2:20 pm81 °FSunny.5 mph48%29.98 "Hg10 mi
1:50 pm81 °FPassing clouds.5 mph48%29.98 "HgN/A
1:20 pm81 °FSunny.5 mph48%30.01 "Hg10 mi
12:50 pm75 °FSunny.5 mph65%30.01 "Hg10 mi
12:20 pm75 °FSunny.3 mph65%30.01 "Hg10 mi
11:50 am73 °FSunny.3 mph74%30.01 "Hg10 mi
11:20 am72 °FSunny.3 mph73%30.01 "Hg10 mi
10:50 am72 °FSunny.3 mph73%30.01 "Hg10 mi
10:20 am70 °FSunny.3 mph73%30.04 "Hg10 mi
9:50 am72 °FPassing clouds.3 mph73%30.04 "HgN/A
9:20 am70 °FPassing clouds.5 mph78%30.04 "HgN/A
8:50 am68 °FSunny.2 mph78%30.04 "Hg10 mi
8:20 am68 °FSunny.3 mph73%30.04 "Hg10 mi
7:50 am66 °FSunny.2 mph83%30.04 "Hg10 mi
7:20 am64 °FSunny.1 mph88%30.04 "Hg10 mi
6:50 am61 °FSunny.3 mph94%30.04 "Hg10 mi
6:20 am59 °FSunny.2 mph100%30.04 "Hg10 mi
5:50 am57 °FSunny.2 mph100%30.04 "Hg10 mi
5:20 am59 °FClear.1 mph94%30.04 "Hg10 mi
4:50 am61 °FClear.1 mph88%30.04 "Hg10 mi
4:20 am59 °FClear.1 mph94%30.04 "Hg10 mi
3:50 am59 °FClear.2 mph100%30.04 "Hg10 mi
3:20 am61 °FClear.2 mph94%30.04 "Hg10 mi
2:50 am61 °FClear.2 mph88%30.04 "Hg10 mi
2:20 am63 °FClear.2 mph83%30.04 "Hg10 mi
1:50 am63 °FClear.2 mph83%30.04 "Hg10 mi
1:20 am61 °FClear.1 mph83%30.04 "Hg10 mi
12:50 am63 °FClear.2 mph77%30.04 "Hg10 mi
12:20 am63 °FClear.1 mph83%30.04 "Hg10 mi
11:50 pm
Tue, Jun 15
68 °FClear.2 mph56%30.07 "Hg10 mi
11:20 pm64 °FClear.1 mph73%30.07 "Hg10 mi
10:50 pm66 °FClear.2 mph64%30.07 "Hg10 mi
10:20 pm66 °FClear.3 mph73%30.07 "Hg10 mi
9:50 pm70 °FClear.3 mph57%30.04 "Hg10 mi
9:20 pm70 °FClear.2 mph57%30.04 "Hg10 mi
8:50 pm75 °FSunny.2 mph44%30.04 "Hg10 mi
8:20 pm77 °FSunny.2 mph47%30.04 "Hg10 mi
7:50 pm81 °FSunny.3 mph34%30.04 "Hg10 mi
7:20 pm81 °FSunny.3 mph45%30.04 "Hg10 mi
6:50 pm82 °FSunny.6 mph35%30.04 "Hg10 mi
6:20 pm82 °FSunny.6 mph40%30.04 "Hg10 mi
5:50 pm82 °FSunny.6 mph28%30.07 "Hg10 mi
5:20 pm82 °FPassing clouds.5 mph37%30.07 "HgN/A
Weather by CustomWeather, © 2021

See weather overview